Cottleville, Missouri
Current Conditions -  °F | °C
As of 10:29 PM on Wednesday 26 Nov 2014 (Local Time) from KSUS Reporting Station
Haze Haze  
Wind Chill: 25°   Ceiling: 800
Heat Index: 34°   Visibility: 2mi
Dew Point: 32°   Wind: 12mph
Humidity: 93%   Direction: 320°NW
Pressure: 30.15"   Gusts: NA
Location:  38.75°N, 90.65°W
Report Text: KSUS 270429Z 32010KT 2SM BR OVC008 01/00 A3015 RMK AO2 UPB16E25SNE00 CIG 006V011 P0000
Loading
Personal Weather Stations






























Interactive Weather Map New forecast layout! Learn more

10-Day Weather Forecast

Advertisements
Track Severe Weather on mobile